sensor_id;sensor_type;location;lat;lon;timestamp;pressure;altitude;pressure_sealevel;temperature;humidity
61408;BME280;47274;43.054;25.146;2023-04-06T00:00:23;95148.88;;;-0.64;91.58
61408;BME280;47274;43.054;25.146;2023-04-06T00:02:49;95149.59;;;-0.62;92.23
61408;BME280;47274;43.054;25.146;2023-04-06T00:05:21;95102.41;;;-0.89;92.54
61408;BME280;47274;43.054;25.146;2023-04-06T00:07:49;95103.13;;;-0.87;92.60
61408;BME280;47274;43.054;25.146;2023-04-06T00:10:21;95115.91;;;-0.76;92.42
61408;BME280;47274;43.054;25.146;2023-04-06T00:12:49;95098.66;;;-0.82;92.19
61408;BME280;47274;43.054;25.146;2023-04-06T00:15:28;95170.78;;;-0.36;92.05
61408;BME280;47274;43.054;25.146;2023-04-06T00:18:27;95193.19;;;-0.17;91.46
61408;BME280;47274;43.054;25.146;2023-04-06T00:21:05;95194.28;;;-0.21;91.79
61408;BME280;47274;43.054;25.146;2023-04-06T00:23:34;95156.19;;;-0.45;92.61
61408;BME280;47274;43.054;25.146;2023-04-06T00:26:07;95070.47;;;-0.88;92.67
61408;BME280;47274;43.054;25.146;2023-04-06T00:28:40;95078.56;;;-0.83;92.73
61408;BME280;47274;43.054;25.146;2023-04-06T00:31:19;95064.06;;;-0.94;91.41
61408;BME280;47274;43.054;25.146;2023-04-06T00:33:58;95094.88;;;-0.60;91.65
61408;BME280;47274;43.054;25.146;2023-04-06T00:36:39;95118.13;;;-0.41;92.22
61408;BME280;47274;43.054;25.146;2023-04-06T00:39:48;95163.94;;;-0.06;91.47
61408;BME280;47274;43.054;25.146;2023-04-06T00:42:14;95053.09;;;-0.79;90.96
61408;BME280;47274;43.054;25.146;2023-04-06T00:44:45;95102.63;;;-0.49;90.41
61408;BME280;47274;43.054;25.146;2023-04-06T00:47:16;95088.56;;;-0.53;91.04
61408;BME280;47274;43.054;25.146;2023-04-06T00:49:50;95068.94;;;-0.62;91.35
61408;BME280;47274;43.054;25.146;2023-04-06T00:52:22;95110.72;;;-0.30;91.32
61408;BME280;47274;43.054;25.146;2023-04-06T00:54:51;95109.28;;;-0.34;92.11
61408;BME280;47274;43.054;25.146;2023-04-06T00:58:07;95027.28;;;-0.82;90.79
61408;BME280;47274;43.054;25.146;2023-04-06T01:00:43;95039.28;;;-0.72;90.59
61408;BME280;47274;43.054;25.146;2023-04-06T01:03:17;95076.06;;;-0.55;90.65
61408;BME280;47274;43.054;25.146;2023-04-06T01:05:51;95100.09;;;-0.49;90.73
61408;BME280;47274;43.054;25.146;2023-04-06T01:08:41;95148.72;;;-0.18;91.17
61408;BME280;47274;43.054;25.146;2023-04-06T01:14:39;95092.53;;;-0.49;92.33
61408;BME280;47274;43.054;25.146;2023-04-06T01:17:16;95105.50;;;-0.41;92.22
61408;BME280;47274;43.054;25.146;2023-04-06T01:19:55;95137.03;;;-0.19;92.25
61408;BME280;47274;43.054;25.146;2023-04-06T01:30:27;95008.28;;;-1.16;93.24
61408;BME280;47274;43.054;25.146;2023-04-06T01:37:31;95046.91;;;-0.73;92.63
61408;BME280;47274;43.054;25.146;2023-04-06T01:40:04;95011.53;;;-0.86;92.10
61408;BME280;47274;43.054;25.146;2023-04-06T01:42:40;95028.91;;;-0.67;92.11
61408;BME280;47274;43.054;25.146;2023-04-06T01:45:10;95037.84;;;-0.61;91.41
61408;BME280;47274;43.054;25.146;2023-04-06T01:47:37;95098.75;;;-0.26;91.19
61408;BME280;47274;43.054;25.146;2023-04-06T01:50:04;95066.06;;;-0.42;91.17
61408;BME280;47274;43.054;25.146;2023-04-06T01:53:00;95104.88;;;-0.16;91.42
61408;BME280;47274;43.054;25.146;2023-04-06T01:55:30;95050.59;;;-0.50;91.02
61408;BME280;47274;43.054;25.146;2023-04-06T01:58:51;95098.72;;;-0.12;90.77
61408;BME280;47274;43.054;25.146;2023-04-06T02:01:18;95057.50;;;-0.39;90.49
61408;BME280;47274;43.054;25.146;2023-04-06T02:04:08;95058.25;;;-0.37;90.59
61408;BME280;47274;43.054;25.146;2023-04-06T02:07:32;95096.84;;;-0.08;90.79
61408;BME280;47274;43.054;25.146;2023-04-06T02:10:41;95100.16;;;-0.08;90.64
61408;BME280;47274;43.054;25.146;2023-04-06T02:17:38;95026.47;;;-0.54;90.19
61408;BME280;47274;43.054;25.146;2023-04-06T02:20:10;94992.28;;;-0.73;90.05
61408;BME280;47274;43.054;25.146;2023-04-06T02:27:41;95093.59;;;-0.10;89.53
61408;BME280;47274;43.054;25.146;2023-04-06T02:30:25;95020.44;;;-0.52;89.02
61408;BME280;47274;43.054;25.146;2023-04-06T02:32:51;95040.06;;;-0.42;88.86
61408;BME280;47274;43.054;25.146;2023-04-06T02:35:17;94983.28;;;-0.77;88.76
61408;BME280;47274;43.054;25.146;2023-04-06T02:41:11;95030.97;;;-0.59;88.89
61408;BME280;47274;43.054;25.146;2023-04-06T02:43:59;94986.34;;;-0.86;88.74
61408;BME280;47274;43.054;25.146;2023-04-06T02:47:07;95046.19;;;-0.46;88.75
61408;BME280;47274;43.054;25.146;2023-04-06T02:49:34;95032.31;;;-0.54;89.74
61408;BME280;47274;43.054;25.146;2023-04-06T02:52:00;95020.81;;;-0.58;88.82
61408;BME280;47274;43.054;25.146;2023-04-06T02:54:30;95005.31;;;-0.66;88.24
61408;BME280;47274;43.054;25.146;2023-04-06T02:57:08;94990.84;;;-0.77;87.95
61408;BME280;47274;43.054;25.146;2023-04-06T02:59:39;95028.81;;;-0.51;88.17
61408;BME280;47274;43.054;25.146;2023-04-06T03:06:19;95061.75;;;-0.40;88.53
61408;BME280;47274;43.054;25.146;2023-04-06T03:08:49;95092.34;;;-0.17;89.29
61408;BME280;47274;43.054;25.146;2023-04-06T03:11:15;95086.66;;;-0.21;90.11
61408;BME280;47274;43.054;25.146;2023-04-06T03:21:34;94998.22;;;-0.88;92.54
61408;BME280;47274;43.054;25.146;2023-04-06T03:24:01;95043.41;;;-0.56;93.45
61408;BME280;47274;43.054;25.146;2023-04-06T03:26:30;95114.16;;;-0.16;92.63
61408;BME280;47274;43.054;25.146;2023-04-06T03:32:20;95034.41;;;-0.60;89.96
61408;BME280;47274;43.054;25.146;2023-04-06T03:38:10;95088.19;;;-0.18;88.48
61408;BME280;47274;43.054;25.146;2023-04-06T03:40:41;95033.94;;;-0.53;88.90
61408;BME280;47274;43.054;25.146;2023-04-06T03:43:20;94995.09;;;-0.77;88.68
61408;BME280;47274;43.054;25.146;2023-04-06T03:45:52;95049.63;;;-0.47;89.22
61408;BME280;47274;43.054;25.146;2023-04-06T03:48:51;95112.94;;;-0.11;89.16
61408;BME280;47274;43.054;25.146;2023-04-06T03:51:19;95017.22;;;-0.68;89.30
61408;BME280;47274;43.054;25.146;2023-04-06T03:54:31;95017.47;;;-0.73;89.61
61408;BME280;47274;43.054;25.146;2023-04-06T03:57:10;94996.16;;;-0.81;89.66
61408;BME280;47274;43.054;25.146;2023-04-06T03:59:35;95079.66;;;-0.30;89.25
61408;BME280;47274;43.054;25.146;2023-04-06T04:02:32;95106.75;;;-0.05;89.49
61408;BME280;47274;43.054;25.146;2023-04-06T04:05:08;95111.59;;;-0.02;89.91
61408;BME280;47274;43.054;25.146;2023-04-06T04:07:38;95002.34;;;-0.73;89.22
61408;BME280;47274;43.054;25.146;2023-04-06T04:10:13;95035.66;;;-0.53;89.94
61408;BME280;47274;43.054;25.146;2023-04-06T04:13:44;95111.69;;;-0.04;89.59
61408;BME280;47274;43.054;25.146;2023-04-06T04:16:25;95038.00;;;-0.50;89.83
61408;BME280;47274;43.054;25.146;2023-04-06T04:19:19;95111.59;;;-0.02;89.83
61408;BME280;47274;43.054;25.146;2023-04-06T04:21:48;95073.59;;;-0.28;89.55
61408;BME280;47274;43.054;25.146;2023-04-06T04:31:51;95113.84;;;0.03;88.54
61408;BME280;47274;43.054;25.146;2023-04-06T04:38:15;95082.53;;;-0.22;87.68
61408;BME280;47274;43.054;25.146;2023-04-06T04:40:44;95014.53;;;-0.65;87.53
61408;BME280;47274;43.054;25.146;2023-04-06T04:43:11;95065.34;;;-0.30;87.40
61408;BME280;47274;43.054;25.146;2023-04-06T04:45:59;95005.31;;;-0.66;87.61
61408;BME280;47274;43.054;25.146;2023-04-06T04:52:56;95015.94;;;-0.46;87.72
61408;BME280;47274;43.054;25.146;2023-04-06T05:00:11;95046.59;;;-0.26;86.33
61408;BME280;47274;43.054;25.146;2023-04-06T05:02:41;95025.56;;;-0.39;86.51
61408;BME280;47274;43.054;25.146;2023-04-06T05:06:21;95113.81;;;0.17;86.96
61408;BME280;47274;43.054;25.146;2023-04-06T05:08:49;94995.00;;;-0.61;86.53
61408;BME280;47274;43.054;25.146;2023-04-06T05:11:20;95093.41;;;0.07;86.33
61408;BME280;47274;43.054;25.146;2023-04-06T05:13:53;95095.53;;;0.13;87.07
61408;BME280;47274;43.054;25.146;2023-04-06T05:16:25;95079.53;;;0.00;86.67
61408;BME280;47274;43.054;25.146;2023-04-06T05:19:30;95037.00;;;-0.33;86.28
61408;BME280;47274;43.054;25.146;2023-04-06T05:21:59;95023.94;;;-0.40;86.84
61408;BME280;47274;43.054;25.146;2023-04-06T05:24:52;95068.09;;;-0.06;87.59
61408;BME280;47274;43.054;25.146;2023-04-06T05:27:19;95077.91;;;-0.01;86.49
61408;BME280;47274;43.054;25.146;2023-04-06T05:29:46;95073.78;;;-0.02;86.81
61408;BME280;47274;43.054;25.146;2023-04-06T05:32:12;95035.59;;;-0.25;86.61
61408;BME280;47274;43.054;25.146;2023-04-06T05:34:38;95066.72;;;0.03;86.89
61408;BME280;47274;43.054;25.146;2023-04-06T05:37:05;95085.78;;;0.21;87.31
61408;BME280;47274;43.054;25.146;2023-04-06T05:40:02;95109.59;;;0.44;86.57
61408;BME280;47274;43.054;25.146;2023-04-06T05:42:40;95035.94;;;-0.02;86.71
61408;BME280;47274;43.054;25.146;2023-04-06T05:45:07;95049.75;;;0.19;87.15
61408;BME280;47274;43.054;25.146;2023-04-06T05:47:33;95100.69;;;0.39;87.00
61408;BME280;47274;43.054;25.146;2023-04-06T05:50:15;95094.75;;;0.40;87.35
61408;BME280;47274;43.054;25.146;2023-04-06T05:52:41;95085.44;;;0.40;86.60
61408;BME280;47274;43.054;25.146;2023-04-06T05:55:11;95100.47;;;0.56;86.82
61408;BME280;47274;43.054;25.146;2023-04-06T05:57:40;95069.13;;;0.46;87.55
61408;BME280;47274;43.054;25.146;2023-04-06T06:00:06;95087.03;;;0.56;86.53
61408;BME280;47274;43.054;25.146;2023-04-06T06:02:38;95092.59;;;0.61;86.40
61408;BME280;47274;43.054;25.146;2023-04-06T06:05:06;95099.16;;;0.63;86.14
61408;BME280;47274;43.054;25.146;2023-04-06T06:07:47;95037.97;;;0.33;86.79
61408;BME280;47274;43.054;25.146;2023-04-06T06:10:17;95100.94;;;0.76;86.73
61408;BME280;47274;43.054;25.146;2023-04-06T06:13:02;95092.81;;;0.70;86.15
61408;BME280;47274;43.054;25.146;2023-04-06T06:15:31;94980.88;;;0.05;86.15
61408;BME280;47274;43.054;25.146;2023-04-06T06:17:58;95066.97;;;0.67;85.42
61408;BME280;47274;43.054;25.146;2023-04-06T06:20:25;95025.28;;;0.34;85.74
61408;BME280;47274;43.054;25.146;2023-04-06T06:26:07;94983.09;;;0.09;85.02
61408;BME280;47274;43.054;25.146;2023-04-06T06:32:18;94987.28;;;0.23;85.09
61408;BME280;47274;43.054;25.146;2023-04-06T06:34:51;95067.00;;;0.80;84.24
61408;BME280;47274;43.054;25.146;2023-04-06T06:40:37;94989.25;;;0.45;83.91
61408;BME280;47274;43.054;25.146;2023-04-06T06:43:04;94989.84;;;0.36;82.17
61408;BME280;47274;43.054;25.146;2023-04-06T06:45:45;95080.88;;;1.12;82.95
61408;BME280;47274;43.054;25.146;2023-04-06T06:48:12;95053.38;;;1.08;83.11
61408;BME280;47274;43.054;25.146;2023-04-06T06:54:27;94993.75;;;0.92;81.61
61408;BME280;47274;43.054;25.146;2023-04-06T06:56:53;95046.00;;;1.30;81.21
61408;BME280;47274;43.054;25.146;2023-04-06T06:59:25;95027.31;;;1.07;81.05
61408;BME280;47274;43.054;25.146;2023-04-06T07:15:23;95055.09;;;1.46;80.07
61408;BME280;47274;43.054;25.146;2023-04-06T07:21:22;94996.16;;;1.19;79.94
61408;BME280;47274;43.054;25.146;2023-04-06T07:23:48;95051.56;;;1.61;79.09
61408;BME280;47274;43.054;25.146;2023-04-06T07:26:15;95017.91;;;1.35;77.47
61408;BME280;47274;43.054;25.146;2023-04-06T07:29:24;95001.69;;;1.50;78.34
61408;BME280;47274;43.054;25.146;2023-04-06T07:32:10;95047.06;;;2.38;75.94
61408;BME280;47274;43.054;25.146;2023-04-06T07:35:20;95037.34;;;2.91;76.08
61408;BME280;47274;43.054;25.146;2023-04-06T07:41:27;94986.22;;;3.65;70.37
61408;BME280;47274;43.054;25.146;2023-04-06T07:47:18;95038.41;;;4.44;68.74
61408;BME280;47274;43.054;25.146;2023-04-06T07:52:59;95021.59;;;3.89;69.70
61408;BME280;47274;43.054;25.146;2023-04-06T08:03:08;95053.34;;;3.83;70.80
61408;BME280;47274;43.054;25.146;2023-04-06T08:05:37;95010.66;;;3.54;70.75
61408;BME280;47274;43.054;25.146;2023-04-06T08:11:35;95085.75;;;3.79;71.03
61408;BME280;47274;43.054;25.146;2023-04-06T08:14:06;95031.31;;;3.50;71.21
61408;BME280;47274;43.054;25.146;2023-04-06T08:17:01;95077.78;;;3.95;70.93
61408;BME280;47274;43.054;25.146;2023-04-06T08:19:30;95053.22;;;3.73;69.76
61408;BME280;47274;43.054;25.146;2023-04-06T08:21:55;95049.44;;;3.56;69.41
61408;BME280;47274;43.054;25.146;2023-04-06T08:24:21;95060.94;;;3.38;70.84
61408;BME280;47274;43.054;25.146;2023-04-06T08:33:57;95026.81;;;3.87;69.89
61408;BME280;47274;43.054;25.146;2023-04-06T08:36:23;95044.06;;;4.04;70.05
61408;BME280;47274;43.054;25.146;2023-04-06T08:38:49;95015.28;;;3.72;67.53
61408;BME280;47274;43.054;25.146;2023-04-06T08:41:16;94984.03;;;3.60;69.84
61408;BME280;47274;43.054;25.146;2023-04-06T08:44:12;95073.50;;;4.50;70.05
61408;BME280;47274;43.054;25.146;2023-04-06T08:50:56;94967.19;;;4.14;66.54
61408;BME280;47274;43.054;25.146;2023-04-06T08:56:45;95021.25;;;4.69;65.77
61408;BME280;47274;43.054;25.146;2023-04-06T09:03:00;95075.03;;;5.27;64.84
61408;BME280;47274;43.054;25.146;2023-04-06T09:10:09;94976.78;;;4.42;63.37
61408;BME280;47274;43.054;25.146;2023-04-06T09:13:18;95042.25;;;5.55;65.46
61408;BME280;47274;43.054;25.146;2023-04-06T09:15:44;95005.47;;;5.38;62.53
61408;BME280;47274;43.054;25.146;2023-04-06T09:18:31;95034.97;;;5.50;63.52
61408;BME280;47274;43.054;25.146;2023-04-06T09:21:05;95009.22;;;5.43;62.82
61408;BME280;47274;43.054;25.146;2023-04-06T09:24:10;95057.06;;;6.11;62.80
61408;BME280;47274;43.054;25.146;2023-04-06T09:31:31;95044.94;;;6.53;60.80
61408;BME280;47274;43.054;25.146;2023-04-06T09:34:34;94966.41;;;6.08;59.31
61408;BME280;47274;43.054;25.146;2023-04-06T09:44:24;94965.69;;;7.03;58.71
61408;BME280;47274;43.054;25.146;2023-04-06T09:47:19;94980.25;;;7.30;57.53
61408;BME280;47274;43.054;25.146;2023-04-06T10:01:17;94979.34;;;7.59;53.88
61408;BME280;47274;43.054;25.146;2023-04-06T10:07:29;94930.00;;;6.94;52.96
61408;BME280;47274;43.054;25.146;2023-04-06T10:09:55;94948.88;;;7.10;55.98
61408;BME280;47274;43.054;25.146;2023-04-06T10:17:24;95026.13;;;7.03;55.88
61408;BME280;47274;43.054;25.146;2023-04-06T10:20:28;95014.00;;;7.62;56.87
61408;BME280;47274;43.054;25.146;2023-04-06T10:27:13;95028.44;;;7.43;56.92
61408;BME280;47274;43.054;25.146;2023-04-06T10:29:47;94944.13;;;6.88;55.10
61408;BME280;47274;43.054;25.146;2023-04-06T10:39:25;94959.31;;;6.70;55.53
61408;BME280;47274;43.054;25.146;2023-04-06T10:45:43;95028.03;;;6.91;55.51
61408;BME280;47274;43.054;25.146;2023-04-06T10:48:16;94950.50;;;6.26;56.30
61408;BME280;47274;43.054;25.146;2023-04-06T10:51:11;94952.63;;;6.40;57.17
61408;BME280;47274;43.054;25.146;2023-04-06T10:54:31;94959.19;;;6.52;55.35
61408;BME280;47274;43.054;25.146;2023-04-06T10:56:58;95025.06;;;6.67;56.24
61408;BME280;47274;43.054;25.146;2023-04-06T11:06:48;94927.38;;;5.88;56.90
61408;BME280;47274;43.054;25.146;2023-04-06T11:09:50;94915.88;;;6.04;56.77
61408;BME280;47274;43.054;25.146;2023-04-06T11:13:03;94928.09;;;6.10;56.64
61408;BME280;47274;43.054;25.146;2023-04-06T11:15:59;95009.75;;;6.86;55.98
61408;BME280;47274;43.054;25.146;2023-04-06T11:19:15;94934.94;;;7.15;54.70
61408;BME280;47274;43.054;25.146;2023-04-06T11:21:44;95009.25;;;8.22;54.19
61408;BME280;47274;43.054;25.146;2023-04-06T11:28:09;94967.94;;;7.53;53.93
61408;BME280;47274;43.054;25.146;2023-04-06T11:30:55;94960.16;;;7.45;51.91
61408;BME280;47274;43.054;25.146;2023-04-06T11:33:21;94939.91;;;7.44;53.28
61408;BME280;47274;43.054;25.146;2023-04-06T11:43:29;94915.13;;;7.99;51.70
61408;BME280;47274;43.054;25.146;2023-04-06T11:53:44;94971.78;;;9.36;52.99
61408;BME280;47274;43.054;25.146;2023-04-06T11:56:50;94993.38;;;10.10;46.51
61408;BME280;47274;43.054;25.146;2023-04-06T11:59:44;94993.06;;;10.80;49.15
61408;BME280;47274;43.054;25.146;2023-04-06T12:05:33;94908.41;;;9.81;46.20
61408;BME280;47274;43.054;25.146;2023-04-06T12:07:59;94940.13;;;9.11;47.69
61408;BME280;47274;43.054;25.146;2023-04-06T12:10:25;94951.06;;;9.21;46.20
61408;BME280;47274;43.054;25.146;2023-04-06T12:12:51;94936.41;;;9.74;48.31
61408;BME280;47274;43.054;25.146;2023-04-06T12:15:48;94989.16;;;10.43;46.67
61408;BME280;47274;43.054;25.146;2023-04-06T12:18:39;94988.19;;;10.44;46.02
61408;BME280;47274;43.054;25.146;2023-04-06T12:21:20;94942.91;;;9.60;46.48
61408;BME280;47274;43.054;25.146;2023-04-06T12:34:26;94986.28;;;10.47;45.93
61408;BME280;47274;43.054;25.146;2023-04-06T12:37:13;94901.22;;;9.92;45.88
61408;BME280;47274;43.054;25.146;2023-04-06T12:40:28;94890.66;;;9.37;45.64
61408;BME280;47274;43.054;25.146;2023-04-06T12:42:57;94879.00;;;9.42;45.50
61408;BME280;47274;43.054;25.146;2023-04-06T12:45:34;94948.81;;;9.18;45.31
61408;BME280;47274;43.054;25.146;2023-04-06T12:51:39;94928.28;;;8.84;48.96
61408;BME280;47274;43.054;25.146;2023-04-06T13:01:43;94980.59;;;8.46;50.01
61408;BME280;47274;43.054;25.146;2023-04-06T13:04:29;94974.22;;;8.32;49.37
61408;BME280;47274;43.054;25.146;2023-04-06T13:13:41;94867.81;;;7.59;50.67
61408;BME280;47274;43.054;25.146;2023-04-06T13:16:08;94879.84;;;8.03;51.27
61408;BME280;47274;43.054;25.146;2023-04-06T13:28:12;94888.47;;;7.84;48.36
61408;BME280;47274;43.054;25.146;2023-04-06T13:37:55;94875.56;;;8.03;50.79
61408;BME280;47274;43.054;25.146;2023-04-06T13:40:46;94957.75;;;8.17;49.21
61408;BME280;47274;43.054;25.146;2023-04-06T13:43:15;94922.94;;;7.80;49.82
61408;BME280;47274;43.054;25.146;2023-04-06T13:46:01;94877.69;;;7.45;50.62
61408;BME280;47274;43.054;25.146;2023-04-06T13:48:30;94950.19;;;8.07;50.28
61408;BME280;47274;43.054;25.146;2023-04-06T13:52:23;94866.31;;;7.39;49.13
61408;BME280;47274;43.054;25.146;2023-04-06T13:58:53;94957.41;;;7.94;50.86
61408;BME280;47274;43.054;25.146;2023-04-06T14:05:01;94870.31;;;7.69;49.95
61408;BME280;47274;43.054;25.146;2023-04-06T14:07:48;94877.75;;;7.80;48.79
61408;BME280;47274;43.054;25.146;2023-04-06T14:10:16;94902.84;;;8.03;49.73
61408;BME280;47274;43.054;25.146;2023-04-06T14:13:31;94863.72;;;7.67;48.76
61408;BME280;47274;43.054;25.146;2023-04-06T14:15:57;94917.66;;;7.81;51.33
61408;BME280;47274;43.054;25.146;2023-04-06T14:26:08;94914.38;;;7.16;52.90
61408;BME280;47274;43.054;25.146;2023-04-06T14:35:59;94943.63;;;7.22;53.00
61408;BME280;47274;43.054;25.146;2023-04-06T14:42:13;94896.22;;;6.72;53.77
61408;BME280;47274;43.054;25.146;2023-04-06T14:44:55;94921.69;;;6.92;54.54
61408;BME280;47274;43.054;25.146;2023-04-06T14:47:30;94873.19;;;6.54;53.26
61408;BME280;47274;43.054;25.146;2023-04-06T15:01:36;94920.72;;;6.36;54.20
61408;BME280;47274;43.054;25.146;2023-04-06T15:04:36;94960.81;;;6.53;53.92
61408;BME280;47274;43.054;25.146;2023-04-06T15:07:14;94897.09;;;6.05;54.55
61408;BME280;47274;43.054;25.146;2023-04-06T15:19:45;94902.69;;;5.69;55.62
61408;BME280;47274;43.054;25.146;2023-04-06T15:26:36;94982.03;;;5.84;54.91
61408;BME280;47274;43.054;25.146;2023-04-06T15:40:01;94989.69;;;5.54;56.36
61408;BME280;47274;43.054;25.146;2023-04-06T15:43:28;94878.00;;;4.70;56.54
61408;BME280;47274;43.054;25.146;2023-04-06T15:49:46;94984.34;;;5.16;56.33
61408;BME280;47274;43.054;25.146;2023-04-06T15:56:42;94894.75;;;4.51;56.90
61408;BME280;47274;43.054;25.146;2023-04-06T15:59:35;95003.88;;;5.16;56.87
61408;BME280;47274;43.054;25.146;2023-04-06T16:05:33;94985.97;;;4.96;57.11
61408;BME280;47274;43.054;25.146;2023-04-06T16:08:20;94910.03;;;4.40;57.72
61408;BME280;47274;43.054;25.146;2023-04-06T16:10:46;94951.00;;;4.68;57.34
61408;BME280;47274;43.054;25.146;2023-04-06T16:13:18;95013.00;;;4.97;57.39
61408;BME280;47274;43.054;25.146;2023-04-06T16:16:19;94970.91;;;4.63;57.36
61408;BME280;47274;43.054;25.146;2023-04-06T16:33:12;94932.81;;;4.10;59.38
61408;BME280;47274;43.054;25.146;2023-04-06T16:47:12;95044.44;;;4.43;59.89
61408;BME280;47274;43.054;25.146;2023-04-06T17:30:54;95020.34;;;3.16;58.91
61408;BME280;47274;43.054;25.146;2023-04-06T17:34:36;95121.97;;;3.70;58.70
61408;BME280;47274;43.054;25.146;2023-04-06T17:37:05;95067.38;;;3.31;58.98
61408;BME280;47274;43.054;25.146;2023-04-06T17:39:31;95098.66;;;3.43;58.29
61408;BME280;47274;43.054;25.146;2023-04-06T17:42:12;95102.91;;;3.42;58.64
61408;BME280;47274;43.054;25.146;2023-04-06T17:45:12;95133.59;;;3.62;58.71
61408;BME280;47274;43.054;25.146;2023-04-06T17:48:02;95082.69;;;3.18;58.93
61408;BME280;47274;43.054;25.146;2023-04-06T17:51:07;95087.41;;;3.12;58.85
61408;BME280;47274;43.054;25.146;2023-04-06T17:53:55;95040.78;;;2.90;59.28
61408;BME280;47274;43.054;25.146;2023-04-06T17:56:21;95107.28;;;3.29;59.37
61408;BME280;47274;43.054;25.146;2023-04-06T17:58:54;95088.44;;;3.09;58.82
61408;BME280;47274;43.054;25.146;2023-04-06T18:01:21;95097.56;;;3.12;59.29
61408;BME280;47274;43.054;25.146;2023-04-06T18:03:46;95090.59;;;3.02;58.67
61408;BME280;47274;43.054;25.146;2023-04-06T18:06:14;95115.53;;;3.20;59.31
61408;BME280;47274;43.054;25.146;2023-04-06T18:08:41;95110.81;;;3.15;60.33
61408;BME280;47274;43.054;25.146;2023-04-06T18:11:16;95159.53;;;3.43;59.27
61408;BME280;47274;43.054;25.146;2023-04-06T18:13:44;95142.06;;;3.27;59.17
61408;BME280;47274;43.054;25.146;2023-04-06T18:19:31;95151.63;;;3.23;58.90
61408;BME280;47274;43.054;25.146;2023-04-06T18:22:14;95117.53;;;2.92;59.54
61408;BME280;47274;43.054;25.146;2023-04-06T18:35:13;95090.69;;;2.66;58.54
61408;BME280;47274;43.054;25.146;2023-04-06T18:38:13;95117.59;;;2.79;58.77
61408;BME280;47274;43.054;25.146;2023-04-06T18:42:05;95209.38;;;3.31;58.13
61408;BME280;47274;43.054;25.146;2023-04-06T18:48:19;95119.88;;;2.71;58.62
61408;BME280;47274;43.054;25.146;2023-04-06T18:51:17;95182.66;;;3.03;59.02
61408;BME280;47274;43.054;25.146;2023-04-06T18:53:46;95175.47;;;2.97;57.92
61408;BME280;47274;43.054;25.146;2023-04-06T18:56:16;95224.34;;;3.23;58.90
61408;BME280;47274;43.054;25.146;2023-04-06T18:58:44;95179.28;;;2.91;59.73
61408;BME280;47274;43.054;25.146;2023-04-06T19:01:28;95176.63;;;2.93;59.03
61408;BME280;47274;43.054;25.146;2023-04-06T19:03:55;95209.19;;;3.10;59.38
61408;BME280;47274;43.054;25.146;2023-04-06T19:06:21;95219.66;;;3.05;59.09
61408;BME280;47274;43.054;25.146;2023-04-06T19:08:48;95222.19;;;3.05;59.61
61408;BME280;47274;43.054;25.146;2023-04-06T19:11:14;95208.44;;;2.97;59.07
61408;BME280;47274;43.054;25.146;2023-04-06T19:13:41;95229.59;;;3.08;59.35
61408;BME280;47274;43.054;25.146;2023-04-06T19:16:15;95227.94;;;3.07;60.68
61408;BME280;47274;43.054;25.146;2023-04-06T19:18:40;95230.72;;;3.04;60.90
61408;BME280;47274;43.054;25.146;2023-04-06T19:21:21;95216.41;;;3.03;60.69
61408;BME280;47274;43.054;25.146;2023-04-06T19:23:49;95233.03;;;3.07;59.33
61408;BME280;47274;43.054;25.146;2023-04-06T19:26:16;95227.34;;;3.04;59.10
61408;BME280;47274;43.054;25.146;2023-04-06T19:28:43;95210.50;;;2.92;60.01
61408;BME280;47274;43.054;25.146;2023-04-06T19:31:11;95232.97;;;2.96;60.39
61408;BME280;47274;43.054;25.146;2023-04-06T19:33:39;95242.69;;;3.02;60.73
61408;BME280;47274;43.054;25.146;2023-04-06T19:36:06;95214.38;;;2.84;59.79
61408;BME280;47274;43.054;25.146;2023-04-06T19:38:33;95236.66;;;2.92;60.13
61408;BME280;47274;43.054;25.146;2023-04-06T19:41:00;95250.72;;;2.96;60.35
61408;BME280;47274;43.054;25.146;2023-04-06T19:43:26;95247.50;;;2.94;59.73
61408;BME280;47274;43.054;25.146;2023-04-06T19:45:52;95236.47;;;2.82;59.71
61408;BME280;47274;43.054;25.146;2023-04-06T19:48:17;95249.44;;;2.91;59.82
61408;BME280;47274;43.054;25.146;2023-04-06T19:50:44;95243.97;;;2.84;59.96
61408;BME280;47274;43.054;25.146;2023-04-06T19:53:10;95248.34;;;2.82;60.20
61408;BME280;47274;43.054;25.146;2023-04-06T19:55:36;95245.81;;;2.82;60.76
61408;BME280;47274;43.054;25.146;2023-04-06T19:58:03;95258.25;;;2.85;60.18
61408;BME280;47274;43.054;25.146;2023-04-06T20:00:29;95257.13;;;2.89;61.11
61408;BME280;47274;43.054;25.146;2023-04-06T20:02:55;95262.94;;;2.78;58.98
61408;BME280;47274;43.054;25.146;2023-04-06T20:05:21;95261.94;;;2.81;60.86
61408;BME280;47274;43.054;25.146;2023-04-06T20:07:47;95253.13;;;2.74;60.55
61408;BME280;47274;43.054;25.146;2023-04-06T20:10:15;95231.03;;;2.63;60.84
61408;BME280;47274;43.054;25.146;2023-04-06T20:12:44;95266.78;;;2.84;61.11
61408;BME280;47274;43.054;25.146;2023-04-06T20:15:10;95256.25;;;2.77;62.01
61408;BME280;47274;43.054;25.146;2023-04-06T20:17:41;95254.94;;;2.72;60.44
61408;BME280;47274;43.054;25.146;2023-04-06T20:20:11;95210.44;;;2.44;60.98
61408;BME280;47274;43.054;25.146;2023-04-06T20:22:37;95212.84;;;2.45;61.74
61408;BME280;47274;43.054;25.146;2023-04-06T20:25:03;95219.03;;;2.41;61.52
61408;BME280;47274;43.054;25.146;2023-04-06T20:31:05;95255.97;;;2.69;61.78
61408;BME280;47274;43.054;25.146;2023-04-06T20:33:33;95207.63;;;2.23;60.87
61408;BME280;47274;43.054;25.146;2023-04-06T20:36:02;95160.47;;;1.96;60.82
61408;BME280;47274;43.054;25.146;2023-04-06T20:38:28;95197.91;;;2.17;60.79
61408;BME280;47274;43.054;25.146;2023-04-06T20:41:09;95158.16;;;1.93;61.01
61408;BME280;47274;43.054;25.146;2023-04-06T20:43:35;95233.75;;;2.36;61.76
61408;BME280;47274;43.054;25.146;2023-04-06T20:46:55;95194.47;;;2.05;61.52
61408;BME280;47274;43.054;25.146;2023-04-06T20:49:39;95170.81;;;1.93;61.15
61408;BME280;47274;43.054;25.146;2023-04-06T20:52:41;95272.75;;;2.46;60.08
61408;BME280;47274;43.054;25.146;2023-04-06T20:55:25;95197.44;;;1.99;60.92
61408;BME280;47274;43.054;25.146;2023-04-06T20:58:35;95271.22;;;2.44;60.38